Eagle Harbor, New York
Current Conditions -  °F | °C
As of 4:54 AM on Tuesday 21 Oct 2014 (Local Time) from KROC Reporting Station
Moderate Rain Moderate Rain  
Wind Chill: 10°   Ceiling: 2000
Heat Index: 10°   Visibility: 6mi
Dew Point:   Wind: 3mph
Humidity: 93%   Direction: 160°SSE
Pressure: 29.78"   Gusts: NA
Location:  43.2353°N, 78.214°W
Report Text: KROC 210854Z 16003KT 6SM RA BR BKN020 OVC027 10/09 A2978 RMK AO2 SLP090 P0004 60007 T01000089 56007
Loading
Personal Weather Stations






























Interactive Weather Map
Tropical Storm Tracking
New forecast layout! Learn more

10-Day Weather Forecast

Advertisements
Track Severe Weather on mobile